Time;durP1;ratioP1;P1;durP2;ratioP2;P2;SDS_P1;SDS_P2;PMS_P1;PMS_P2;Temp;Humidity;BMP_temperature;BMP_pressure;BME280_temperature;BME280_humidity;BME280_pressure;Samples;Min_cycle;Max_cycle;Signal;HPM_P1;HPM_P2
2022/08/04 00:01:15;;;;;;;0.45;0.30;;;20.20;99.90;;;;;;5132158;28;20046;-86
2022/08/04 00:03:51;;;;;;;0.55;0.30;;;20.20;99.90;;;;;;5132601;28;20040;-86
2022/08/04 00:06:33;;;;;;;2.00;1.00;;;20.20;99.90;;;;;;5132579;28;20130;-85
2022/08/04 00:09:06;;;;;;;0.73;0.50;;;20.20;99.90;;;;;;5132218;28;20122;-86
2022/08/04 00:11:33;;;;;;;0.65;0.50;;;20.20;99.90;;;;;;5132345;28;20035;-86
2022/08/04 00:14:10;;;;;;;0.85;0.55;;;20.20;99.90;;;;;;5131978;28;20036;-86
2022/08/04 00:16:39;;;;;;;0.75;0.60;;;20.20;99.90;;;;;;5132609;28;20088;-86
2022/08/04 00:19:15;;;;;;;2.58;0.80;;;20.20;99.90;;;;;;5148503;28;20076;-86
2022/08/04 00:21:50;;;;;;;1.48;0.85;;;20.20;99.90;;;;;;5132179;28;20608;-86
2022/08/04 00:24:18;;;;;;;0.88;0.50;;;20.20;99.90;;;;;;5131850;28;20469;-86
2022/08/04 00:26:45;;;;;;;1.83;0.60;;;20.10;99.90;;;;;;5132060;28;20492;-86
2022/08/04 00:29:13;;;;;;;1.58;0.65;;;20.10;99.90;;;;;;5131414;28;20500;-86
2022/08/04 00:31:41;;;;;;;0.45;0.40;;;20.10;99.90;;;;;;5149264;28;20138;-86
2022/08/04 00:34:12;;;;;;;1.05;0.55;;;20.10;99.90;;;;;;5131610;28;20416;-86
2022/08/04 00:36:42;;;;;;;0.32;0.30;;;20.00;99.90;;;;;;5130932;28;20445;-86
2022/08/04 00:39:12;;;;;;;0.73;0.45;;;20.00;99.90;;;;;;5115279;28;20050;-85
2022/08/04 00:41:57;;;;;;;1.23;0.70;;;20.00;99.90;;;;;;5131997;28;20040;-86
2022/08/04 00:44:56;;;;;;;0.55;0.45;;;20.00;99.90;;;;;;5131372;28;20530;-86
2022/08/04 00:47:44;;;;;;;0.28;0.20;;;20.00;99.90;;;;;;5130588;28;20055;-86
2022/08/04 00:50:23;;;;;;;0.47;0.35;;;20.00;99.90;;;;;;5131361;28;20042;-86
2022/08/04 00:53:05;;;;;;;0.45;0.40;;;20.00;99.90;;;;;;5130838;28;20184;-86
2022/08/04 00:55:40;;;;;;;0.52;0.43;;;20.00;99.90;;;;;;5131820;28;20035;-86
2022/08/04 00:58:22;;;;;;;0.82;0.52;;;20.00;99.90;;;;;;5165914;27;20046;-86
2022/08/04 01:01:29;;;;;;;0.55;0.50;;;20.00;99.90;;;;;;5166002;27;20039;-86
2022/08/04 01:04:06;;;;;;;0.55;0.40;;;19.90;99.90;;;;;;5165108;27;20501;-86
2022/08/04 01:06:35;;;;;;;0.32;0.32;;;19.90;99.90;;;;;;5131480;28;20696;-86
2022/08/04 01:09:39;;;;;;;0.30;0.30;;;20.00;99.90;;;;;;5131082;28;20100;-86
2022/08/04 01:12:27;;;;;;;0.98;0.68;;;19.90;99.90;;;;;;5130776;28;20054;-86
2022/08/04 01:15:04;;;;;;;1.65;0.50;;;19.90;99.90;;;;;;5165154;27;20075;-86
2022/08/04 01:17:34;;;;;;;0.60;0.50;;;19.80;99.90;;;;;;5130633;28;20031;-86
2022/08/04 01:20:15;;;;;;;0.85;0.60;;;19.80;99.90;;;;;;5165565;27;20069;-86
2022/08/04 01:23:06;;;;;;;0.68;0.40;;;19.80;99.90;;;;;;5131567;28;20092;-86
2022/08/04 01:26:09;;;;;;;1.33;0.70;;;19.80;99.90;;;;;;5131031;28;20050;-86
2022/08/04 01:28:57;;;;;;;0.70;0.43;;;19.70;99.90;;;;;;5110608;28;20044;-86
2022/08/04 01:31:40;;;;;;;1.33;0.63;;;19.70;99.90;;;;;;5144737;28;20055;-86
2022/08/04 01:34:12;;;;;;;0.70;0.47;;;19.70;99.90;;;;;;5144497;28;20040;-86
2022/08/04 01:36:48;;;;;;;0.30;0.30;;;19.70;99.90;;;;;;5110760;28;20408;-86
2022/08/04 01:42:03;;;;;;;0.65;0.50;;;19.70;99.90;;;;;;5141686;28;20044;-86
2022/08/04 01:44:31;;;;;;;0.70;0.63;;;19.70;99.90;;;;;;5122385;28;20039;-86
2022/08/04 01:47:00;;;;;;;0.47;0.40;;;19.60;99.90;;;;;;5113965;28;20108;-86
2022/08/04 01:49:31;;;;;;;0.45;0.40;;;19.60;99.90;;;;;;5113802;28;20083;-86
2022/08/04 01:51:58;;;;;;;1.10;0.63;;;19.60;99.90;;;;;;5130510;28;20043;-86
2022/08/04 01:54:27;;;;;;;1.65;0.68;;;19.50;99.90;;;;;;5130288;28;20067;-86
2022/08/04 01:56:55;;;;;;;1.48;0.65;;;19.50;99.90;;;;;;5147498;28;20072;-86
2022/08/04 01:59:22;;;;;;;0.68;0.52;;;19.50;99.90;;;;;;5164185;27;20039;-86
2022/08/04 02:01:52;;;;;;;1.90;0.88;;;19.40;99.90;;;;;;5130205;28;20042;-86
2022/08/04 02:04:21;;;;;;;0.40;0.40;;;19.40;99.90;;;;;;5146873;28;20071;-86
2022/08/04 02:07:13;;;;;;;0.47;0.43;;;19.40;99.90;;;;;;5130333;28;20416;-86
2022/08/04 02:09:56;;;;;;;1.00;0.73;;;19.40;99.90;;;;;;5164959;27;20043;-86
2022/08/04 02:12:52;;;;;;;0.43;0.40;;;19.30;99.90;;;;;;5130102;28;20043;-86
2022/08/04 02:15:30;;;;;;;1.63;1.00;;;19.30;99.90;;;;;;5129966;28;20040;-86
2022/08/04 02:17:59;;;;;;;0.30;0.30;;;19.30;99.90;;;;;;5130238;28;20035;-86
2022/08/04 02:20:36;;;;;;;0.98;0.60;;;19.20;99.90;;;;;;5163970;27;20135;-86
2022/08/04 02:23:23;;;;;;;0.68;0.55;;;19.30;99.90;;;;;;5130175;28;20055;-86
2022/08/04 02:26:12;;;;;;;0.55;0.45;;;19.20;99.90;;;;;;5164255;27;20122;-86
2022/08/04 02:28:47;;;;;;;0.98;0.63;;;19.20;99.90;;;;;;5137130;28;20063;-86
2022/08/04 02:31:28;;;;;;;0.70;0.52;;;19.20;99.90;;;;;;5129896;28;20126;-86
2022/08/04 02:34:00;;;;;;;1.38;0.65;;;19.10;99.90;;;;;;5129731;28;20043;-86
2022/08/04 02:36:33;;;;;;;0.40;0.40;;;19.10;99.90;;;;;;5129482;28;20028;-86
2022/08/04 02:39:01;;;;;;;0.80;0.68;;;19.10;99.90;;;;;;5129667;28;20075;-86
2022/08/04 02:41:30;;;;;;;0.88;0.50;;;19.00;99.90;;;;;;5163261;27;20126;-86
2022/08/04 02:44:00;;;;;;;0.43;0.40;;;19.00;99.90;;;;;;5146730;28;20088;-86
2022/08/04 02:46:29;;;;;;;2.20;0.63;;;19.00;99.90;;;;;;5129216;28;20070;-86
2022/08/04 02:48:56;;;;;;;0.80;0.50;;;19.00;99.90;;;;;;5163734;27;20591;-86
2022/08/04 02:51:44;;;;;;;0.30;0.30;;;19.00;99.90;;;;;;5129182;28;20044;-85
2022/08/04 02:54:14;;;;;;;1.05;0.75;;;18.90;99.90;;;;;;5119633;28;20047;-86
2022/08/04 02:56:44;;;;;;;2.00;0.75;;;18.90;99.90;;;;;;5145679;28;20127;-86
2022/08/04 02:59:12;;;;;;;1.08;0.68;;;18.80;99.90;;;;;;5163485;27;20075;-86
2022/08/04 03:01:40;;;;;;;0.47;0.35;;;18.80;99.90;;;;;;5128965;28;20122;-86
2022/08/04 03:04:16;;;;;;;0.60;0.43;;;18.80;99.90;;;;;;5146241;28;20047;-86
2022/08/04 03:07:20;;;;;;;0.43;0.25;;;18.80;99.90;;;;;;5163204;28;20404;-86
2022/08/04 03:10:24;;;;;;;1.02;0.68;;;18.80;99.90;;;;;;5129471;28;20043;-86
2022/08/04 03:13:12;;;;;;;0.40;0.40;;;18.80;99.90;;;;;;5129344;28;20047;-86
2022/08/04 03:15:48;;;;;;;0.77;0.43;;;18.70;99.90;;;;;;5130331;28;20035;-86
2022/08/04 03:18:52;;;;;;;0.32;0.30;;;18.70;99.90;;;;;;5168190;27;20500;-86
2022/08/04 03:21:43;;;;;;;0.30;0.30;;;18.70;99.90;;;;;;5133800;28;20045;-86
2022/08/04 03:24:34;;;;;;;0.63;0.47;;;18.70;99.90;;;;;;5167985;27;20083;-86
2022/08/04 03:27:17;;;;;;;0.38;0.38;;;18.70;99.90;;;;;;5167655;27;20118;-86
2022/08/04 03:29:55;;;;;;;0.45;0.35;;;18.60;99.90;;;;;;5133107;28;20048;-86
2022/08/04 03:32:44;;;;;;;0.75;0.55;;;18.60;99.90;;;;;;5167372;27;20035;-86
2022/08/04 03:35:34;;;;;;;0.73;0.40;;;18.60;99.90;;;;;;5132829;28;20050;-86
2022/08/04 03:38:16;;;;;;;0.50;0.43;;;18.60;99.90;;;;;;5133752;28;20036;-86
2022/08/04 03:40:55;;;;;;;0.38;0.30;;;18.50;99.90;;;;;;5133188;28;20495;-86
2022/08/04 03:43:33;;;;;;;0.20;0.20;;;18.50;99.90;;;;;;5168383;27;20047;-86
2022/08/04 03:46:19;;;;;;;0.40;0.30;;;18.50;99.90;;;;;;5168018;27;20039;-86
2022/08/04 03:49:08;;;;;;;1.05;0.43;;;18.50;99.90;;;;;;5166649;27;20055;-86
2022/08/04 03:55:13;;;;;;;0.93;0.57;;;18.50;99.90;;;;;;5185068;27;20047;-86
2022/08/04 03:58:06;;;;;;;0.47;0.32;;;18.50;99.90;;;;;;5167676;27;20082;-86
2022/08/04 04:00:46;;;;;;;0.93;0.70;;;18.50;99.90;;;;;;5167674;27;20448;-86
2022/08/04 04:03:36;;;;;;;0.47;0.40;;;18.50;99.90;;;;;;5168052;27;20057;-86
2022/08/04 04:06:24;;;;;;;0.30;0.28;;;18.50;99.90;;;;;;5133271;28;20067;-86
2022/08/04 04:09:22;;;;;;;0.52;0.40;;;18.50;99.90;;;;;;5167849;27;20131;-86
2022/08/04 04:12:23;;;;;;;0.25;0.25;;;18.50;99.90;;;;;;5133229;28;20665;-86
2022/08/04 04:15:02;;;;;;;0.88;0.50;;;18.50;99.90;;;;;;5167129;27;20086;-86
2022/08/04 04:17:45;;;;;;;0.57;0.43;;;18.50;99.90;;;;;;5167652;27;20039;-86
2022/08/04 04:20:40;;;;;;;0.55;0.40;;;18.50;99.90;;;;;;5133634;28;20050;-86
2022/08/04 04:23:25;;;;;;;0.40;0.40;;;18.60;99.90;;;;;;5133667;28;20040;-86
2022/08/04 04:26:21;;;;;;;0.95;0.70;;;18.60;99.90;;;;;;5149899;28;20488;-86
2022/08/04 04:28:52;;;;;;;0.28;0.20;;;18.60;99.90;;;;;;5132387;28;20048;-86
2022/08/04 04:31:32;;;;;;;0.57;0.50;;;18.70;99.90;;;;;;5132921;28;20491;-86
2022/08/04 04:34:16;;;;;;;0.30;0.30;;;18.70;99.90;;;;;;5132970;28;20093;-86
2022/08/04 04:37:24;;;;;;;0.28;0.25;;;18.80;99.90;;;;;;5150002;28;20036;-87
2022/08/04 04:40:16;;;;;;;0.63;0.45;;;18.80;99.90;;;;;;5123010;28;20044;-86
2022/08/04 04:43:25;;;;;;;0.50;0.47;;;18.80;99.90;;;;;;5132318;28;20039;-86
2022/08/04 04:46:04;;;;;;;0.73;0.52;;;18.80;99.90;;;;;;5149392;28;20078;-86
2022/08/04 04:48:50;;;;;;;0.98;0.60;;;18.90;99.90;;;;;;5166509;27;20512;-86
2022/08/04 04:51:26;;;;;;;0.70;0.50;;;18.90;99.90;;;;;;5166813;27;20078;-86
2022/08/04 04:54:18;;;;;;;0.73;0.60;;;18.90;99.90;;;;;;5149184;28;20044;-86
2022/08/04 04:56:52;;;;;;;0.55;0.43;;;19.00;99.90;;;;;;5149348;28;20035;-86
2022/08/04 04:59:27;;;;;;;0.40;0.30;;;19.00;99.90;;;;;;5132284;28;20407;-86
2022/08/04 05:02:24;;;;;;;0.45;0.43;;;19.00;99.90;;;;;;5131876;28;20039;-86
2022/08/04 05:05:00;;;;;;;0.32;0.32;;;19.10;99.90;;;;;;5132302;28;20496;-86
2022/08/04 05:07:33;;;;;;;0.20;0.20;;;19.20;99.90;;;;;;5166539;27;20469;-86
2022/08/04 05:10:22;;;;;;;0.65;0.43;;;19.10;99.90;;;;;;5166523;27;20035;-86
2022/08/04 05:13:24;;;;;;;0.75;0.40;;;19.20;99.90;;;;;;5132046;28;20085;-87
2022/08/04 05:15:55;;;;;;;0.88;0.55;;;19.30;99.90;;;;;;5131976;28;20460;-86
2022/08/04 05:18:29;;;;;;;0.60;0.43;;;19.30;99.90;;;;;;5149216;28;20046;-87
2022/08/04 05:21:15;;;;;;;1.65;1.15;;;19.20;99.90;;;;;;5149153;28;20122;-87
2022/08/04 05:23:46;;;;;;;0.50;0.50;;;19.40;99.90;;;;;;5166097;27;20039;-87
2022/08/04 05:26:17;;;;;;;1.45;0.68;;;19.50;99.90;;;;;;5132152;28;20046;-87
2022/08/04 05:28:58;;;;;;;0.20;0.20;;;19.50;99.90;;;;;;5131772;28;20054;-87
2022/08/04 05:31:38;;;;;;;0.45;0.43;;;19.60;99.90;;;;;;5149012;28;20047;-87
2022/08/04 05:34:20;;;;;;;1.13;0.80;;;19.70;99.90;;;;;;5148688;28;20039;-87
2022/08/04 05:36:49;;;;;;;0.20;0.20;;;19.80;99.90;;;;;;5166259;27;20032;-87
2022/08/04 05:39:24;;;;;;;0.47;0.40;;;19.90;99.90;;;;;;5151465;28;20099;-87
2022/08/04 05:41:51;;;;;;;0.75;0.50;;;19.90;99.90;;;;;;5134761;28;20130;-87
2022/08/04 05:44:21;;;;;;;0.95;0.52;;;20.00;99.90;;;;;;5131378;28;20102;-86
2022/08/04 05:46:53;;;;;;;0.55;0.47;;;20.10;99.90;;;;;;5131177;28;20059;-86
2022/08/04 05:49:25;;;;;;;0.73;0.40;;;20.20;99.90;;;;;;5131698;28;20051;-87
2022/08/04 05:51:55;;;;;;;0.32;0.30;;;20.20;99.90;;;;;;5131100;28;20087;-86
2022/08/04 05:54:23;;;;;;;1.10;0.68;;;20.30;99.90;;;;;;5131617;28;20036;-87
2022/08/04 05:56:52;;;;;;;0.40;0.40;;;20.30;99.90;;;;;;5165319;27;20039;-87
2022/08/04 05:59:20;;;;;;;0.95;0.50;;;20.40;99.90;;;;;;5131867;28;20035;-87
2022/08/04 06:01:47;;;;;;;0.88;0.50;;;20.40;99.90;;;;;;5148403;28;20039;-86
2022/08/04 06:04:17;;;;;;;0.85;0.52;;;20.40;99.90;;;;;;5165721;27;20040;-87
2022/08/04 06:06:44;;;;;;;0.82;0.60;;;20.50;99.90;;;;;;5147983;28;20047;-87
2022/08/04 06:09:11;;;;;;;0.85;0.75;;;20.60;99.90;;;;;;5130956;28;20035;-87
2022/08/04 06:11:39;;;;;;;0.80;0.60;;;20.60;99.90;;;;;;5148490;28;20043;-87
2022/08/04 06:14:08;;;;;;;0.50;0.40;;;20.60;99.90;;;;;;5148102;28;20504;-86
2022/08/04 06:16:39;;;;;;;0.85;0.52;;;20.70;99.90;;;;;;5148252;28;20040;-87
2022/08/04 06:19:08;;;;;;;0.85;0.47;;;20.70;99.90;;;;;;5148063;28;20035;-86
2022/08/04 06:21:38;;;;;;;0.75;0.55;;;20.80;99.90;;;;;;5131221;28;20031;-87
2022/08/04 06:24:10;;;;;;;1.27;0.73;;;20.90;99.90;;;;;;5130823;28;20036;-86
2022/08/04 06:26:39;;;;;;;1.55;0.63;;;21.00;99.90;;;;;;5131090;28;20044;-87
2022/08/04 06:29:16;;;;;;;0.45;0.40;;;21.00;99.90;;;;;;5147665;28;20100;-87
2022/08/04 06:31:56;;;;;;;0.73;0.50;;;21.10;99.90;;;;;;5146470;28;20159;-87
2022/08/04 06:34:27;;;;;;;0.75;0.60;;;21.20;99.90;;;;;;5146140;28;20408;-86
2022/08/04 06:36:55;;;;;;;0.57;0.47;;;21.30;99.90;;;;;;5163822;27;20071;-87
2022/08/04 06:39:24;;;;;;;1.10;0.52;;;21.40;99.90;;;;;;5131088;28;20042;-86
2022/08/04 06:41:52;;;;;;;1.23;0.70;;;21.40;99.90;;;;;;5130449;28;20127;-86
2022/08/04 06:44:20;;;;;;;0.73;0.50;;;21.50;99.90;;;;;;5147195;28;20531;-87
2022/08/04 06:46:47;;;;;;;0.45;0.30;;;21.50;99.90;;;;;;5146773;28;20059;-86
2022/08/04 06:49:16;;;;;;;2.20;0.73;;;21.60;99.90;;;;;;5147323;28;20040;-87
2022/08/04 06:51:44;;;;;;;0.98;0.60;;;21.70;99.90;;;;;;5130156;28;20036;-87
2022/08/04 06:54:10;;;;;;;0.52;0.40;;;21.80;99.90;;;;;;5129975;28;20040;-87
2022/08/04 06:56:39;;;;;;;0.57;0.50;;;21.80;99.90;;;;;;5131179;28;20028;-87
2022/08/04 06:59:07;;;;;;;0.73;0.55;;;21.90;99.90;;;;;;5147396;28;20036;-86
2022/08/04 07:01:35;;;;;;;0.98;0.50;;;21.90;99.90;;;;;;5147646;28;20040;-87
2022/08/04 07:04:03;;;;;;;0.40;0.40;;;22.10;99.90;;;;;;5147481;28;20039;-87
2022/08/04 07:06:31;;;;;;;1.08;0.82;;;22.20;99.90;;;;;;5147558;28;20044;-87
2022/08/04 07:08:58;;;;;;;1.27;0.63;;;22.30;99.90;;;;;;5147060;28;20035;-87
2022/08/04 07:11:26;;;;;;;0.70;0.60;;;22.40;99.90;;;;;;5130368;28;20601;-87
2022/08/04 07:13:53;;;;;;;0.63;0.45;;;22.50;99.90;;;;;;5146272;28;20035;-86
2022/08/04 07:16:21;;;;;;;1.90;0.70;;;22.60;99.90;;;;;;5147322;28;20488;-87
2022/08/04 07:18:47;;;;;;;0.43;0.40;;;22.70;99.90;;;;;;5147246;28;20384;-87
2022/08/04 07:21:22;;;;;;;2.88;0.77;;;22.80;99.90;;;;;;5130216;28;20035;-87
2022/08/04 07:23:50;;;;;;;0.40;0.40;;;22.90;99.90;;;;;;5130424;28;20039;-87
2022/08/04 07:26:18;;;;;;;0.88;0.70;;;22.90;99.90;;;;;;5146811;28;20528;-87
2022/08/04 07:28:46;;;;;;;0.85;0.57;;;23.00;99.90;;;;;;5147071;28;20476;-86
2022/08/04 07:31:17;;;;;;;0.60;0.45;;;23.10;99.90;;;;;;5146873;28;20047;-85
2022/08/04 07:33:44;;;;;;;0.65;0.40;;;23.10;99.90;;;;;;5147144;28;20078;-87
2022/08/04 07:36:11;;;;;;;0.57;0.40;;;23.20;99.90;;;;;;5146842;28;20667;-86
2022/08/04 07:38:40;;;;;;;0.70;0.50;;;23.30;99.90;;;;;;5130143;28;20180;-87
2022/08/04 07:41:07;;;;;;;0.68;0.50;;;23.50;99.90;;;;;;5146343;28;20472;-86
2022/08/04 07:43:35;;;;;;;0.75;0.43;;;23.60;99.90;;;;;;5147543;28;20093;-87
2022/08/04 07:46:03;;;;;;;0.60;0.50;;;23.70;99.90;;;;;;5146853;28;20032;-86
2022/08/04 07:48:30;;;;;;;0.65;0.45;;;23.70;99.90;;;;;;5146703;28;20462;-87
2022/08/04 07:50:58;;;;;;;0.32;0.32;;;23.80;99.90;;;;;;5146990;28;20043;-87
2022/08/04 07:53:26;;;;;;;1.05;0.70;;;23.80;99.90;;;;;;5146891;28;20096;-87
2022/08/04 07:55:54;;;;;;;0.98;0.50;;;23.80;99.90;;;;;;5146951;28;20039;-87
2022/08/04 07:58:21;;;;;;;0.82;0.50;;;23.70;99.90;;;;;;5146625;28;20044;-87
2022/08/04 08:00:48;;;;;;;1.15;0.60;;;23.90;99.90;;;;;;5130098;28;20046;-87
2022/08/04 08:03:16;;;;;;;0.63;0.52;;;24.00;99.90;;;;;;5149982;28;20048;-87
2022/08/04 08:05:42;;;;;;;0.57;0.50;;;24.20;99.90;;;;;;5132969;28;20039;-87
2022/08/04 08:08:10;;;;;;;0.40;0.40;;;24.20;99.90;;;;;;5132979;28;20134;-86
2022/08/04 08:10:38;;;;;;;0.88;0.52;;;24.30;99.90;;;;;;5167513;27;20047;-87
2022/08/04 08:13:06;;;;;;;0.90;0.60;;;24.40;99.90;;;;;;5150030;28;20567;-87
2022/08/04 08:15:33;;;;;;;0.50;0.40;;;24.40;99.90;;;;;;5133390;28;20043;-87
2022/08/04 08:18:00;;;;;;;1.38;0.40;;;24.50;99.90;;;;;;5132829;28;20031;-87
2022/08/04 08:20:30;;;;;;;0.30;0.30;;;24.50;99.90;;;;;;5133384;28;20036;-87
2022/08/04 08:22:59;;;;;;;0.75;0.50;;;24.60;99.90;;;;;;5132898;28;20043;-87
2022/08/04 08:25:32;;;;;;;0.57;0.40;;;24.70;99.90;;;;;;5133464;28;20043;-87
2022/08/04 08:28:01;;;;;;;0.95;0.38;;;24.80;99.90;;;;;;5132910;28;20040;-87
2022/08/04 08:30:27;;;;;;;0.38;0.35;;;24.80;99.90;;;;;;5149632;28;20130;-87
2022/08/04 08:32:54;;;;;;;0.55;0.30;;;24.90;99.90;;;;;;5166753;27;20184;-87
2022/08/04 08:35:22;;;;;;;0.52;0.30;;;25.00;99.90;;;;;;5132956;28;20042;-87
2022/08/04 08:37:57;;;;;;;0.85;0.50;;;25.10;99.90;;;;;;5149558;28;20128;-86
2022/08/04 08:40:29;;;;;;;0.55;0.32;;;25.30;99.90;;;;;;5132828;28;20043;-87
2022/08/04 08:43:14;;;;;;;0.57;0.40;;;25.40;99.90;;;;;;5167007;27;20043;-87
2022/08/04 08:45:50;;;;;;;0.63;0.40;;;25.50;99.90;;;;;;5167494;27;20044;-86
2022/08/04 08:48:24;;;;;;;0.73;0.57;;;25.70;99.90;;;;;;5132514;28;20090;-87
2022/08/04 08:51:05;;;;;;;0.63;0.47;;;25.90;99.90;;;;;;5132672;28;20412;-87
2022/08/04 08:53:50;;;;;;;1.33;0.57;;;26.00;99.90;;;;;;5132967;28;20046;-87
2022/08/04 08:56:46;;;;;;;0.85;0.50;;;26.00;99.90;;;;;;5132172;28;20050;-87
2022/08/04 08:59:33;;;;;;;1.20;0.70;;;26.00;99.90;;;;;;5166638;27;20040;-87
2022/08/04 09:02:25;;;;;;;1.35;0.70;;;26.00;99.90;;;;;;5132921;28;20400;-87
2022/08/04 09:05:03;;;;;;;0.98;0.50;;;26.00;99.90;;;;;;5132987;28;20135;-87
2022/08/04 09:07:36;;;;;;;0.70;0.47;;;26.20;99.90;;;;;;5149472;28;20067;-86
2022/08/04 09:10:27;;;;;;;1.13;0.38;;;26.20;99.90;;;;;;5166532;27;20075;-87
2022/08/04 09:13:18;;;;;;;0.68;0.50;;;26.20;99.90;;;;;;5131513;28;20044;-87
2022/08/04 09:16:13;;;;;;;0.77;0.45;;;26.30;99.90;;;;;;5132463;28;20075;-87
2022/08/04 09:18:52;;;;;;;2.63;0.80;;;26.40;99.90;;;;;;5132236;28;20093;-87
2022/08/04 09:21:43;;;;;;;0.80;0.50;;;26.50;99.90;;;;;;5166174;27;20046;-87
2022/08/04 09:24:27;;;;;;;1.02;0.65;;;26.70;99.90;;;;;;5145341;28;20086;-87
2022/08/04 09:26:59;;;;;;;1.27;0.70;;;26.80;99.90;;;;;;5145448;28;20051;-87
2022/08/04 09:29:38;;;;;;;1.77;0.70;;;27.10;99.90;;;;;;5145218;27;20132;-87
2022/08/04 09:32:20;;;;;;;0.65;0.55;;;27.30;99.90;;;;;;5111580;28;20036;-87
2022/08/04 09:35:08;;;;;;;1.10;0.60;;;27.50;99.90;;;;;;5145178;28;20043;-87
2022/08/04 09:37:49;;;;;;;1.27;0.63;;;27.60;99.90;;;;;;5111482;28;20042;-87
2022/08/04 09:41:02;;;;;;;0.60;0.50;;;27.70;99.90;;;;;;5111262;28;20477;-87
2022/08/04 09:43:56;;;;;;;0.40;0.40;;;27.80;99.90;;;;;;5103358;28;20048;-87
2022/08/04 09:46:33;;;;;;;0.93;0.40;;;28.10;99.90;;;;;;5126142;28;20044;-87
2022/08/04 09:49:38;;;;;;;0.82;0.50;;;28.20;99.90;;;;;;5131784;28;20066;-87
2022/08/04 09:52:36;;;;;;;0.35;0.22;;;28.30;99.90;;;;;;5148076;28;20044;-87
2022/08/04 09:55:31;;;;;;;0.70;0.43;;;28.50;99.90;;;;;;5131601;28;20751;-87
2022/08/04 09:58:21;;;;;;;1.08;0.47;;;28.40;99.90;;;;;;5131500;28;20110;-87
2022/08/04 10:00:55;;;;;;;0.90;0.60;;;28.60;99.90;;;;;;5148509;28;20481;-87
2022/08/04 10:03:25;;;;;;;0.43;0.40;;;28.70;99.90;;;;;;5130911;28;20397;-87
2022/08/04 10:06:10;;;;;;;0.68;0.50;;;28.90;99.90;;;;;;5131306;28;20092;-87
2022/08/04 10:08:59;;;;;;;0.50;0.40;;;29.00;99.90;;;;;;5148171;28;20040;-87
2022/08/04 10:11:58;;;;;;;0.40;0.40;;;29.10;99.90;;;;;;5147934;28;21097;-87
2022/08/04 10:14:39;;;;;;;0.40;0.40;;;29.20;99.90;;;;;;5130804;28;20043;-87
2022/08/04 10:17:27;;;;;;;1.30;0.80;;;29.20;99.90;;;;;;5131287;28;20082;-87
2022/08/04 10:20:39;;;;;;;0.70;0.60;;;29.30;99.90;;;;;;5130980;28;20067;-87
2022/08/04 10:23:32;;;;;;;0.45;0.43;;;29.30;99.90;;;;;;5130845;28;20119;-87
2022/08/04 10:26:23;;;;;;;0.73;0.50;;;29.40;99.90;;;;;;5131023;28;20100;-87
2022/08/04 10:29:14;;;;;;;0.40;0.40;;;29.30;99.90;;;;;;5147705;28;20077;-87
2022/08/04 10:32:09;;;;;;;0.40;0.30;;;29.40;99.90;;;;;;5130621;28;20403;-87
2022/08/04 10:34:56;;;;;;;0.60;0.40;;;29.50;99.90;;;;;;5128407;28;20044;-86
2022/08/04 10:37:33;;;;;;;0.52;0.40;;;29.60;99.90;;;;;;5164216;27;20438;-87
2022/08/04 10:40:35;;;;;;;0.52;0.50;;;29.40;99.90;;;;;;5130630;28;20035;-86
2022/08/04 10:43:12;;;;;;;0.32;0.32;;;29.30;99.90;;;;;;5182264;27;20411;-87
2022/08/04 10:45:45;;;;;;;0.50;0.38;;;29.30;99.90;;;;;;5164222;27;20051;-87
2022/08/04 10:48:53;;;;;;;0.40;0.40;;;29.40;99.90;;;;;;5130137;28;20055;-87
2022/08/04 10:51:51;;;;;;;1.05;0.70;;;29.50;99.90;;;;;;5105575;28;20525;-86
2022/08/04 10:54:27;;;;;;;1.52;0.80;;;29.60;99.90;;;;;;5164449;27;20036;-86
2022/08/04 10:57:00;;;;;;;0.52;0.50;;;29.80;99.90;;;;;;5164406;27;20457;-86
2022/08/04 11:00:00;;;;;;;0.45;0.40;;;29.70;99.90;;;;;;5130396;28;20697;-87
2022/08/04 11:02:54;;;;;;;0.40;0.40;;;29.80;99.90;;;;;;5129839;28;20043;-87
2022/08/04 11:05:34;;;;;;;0.77;0.43;;;29.70;99.90;;;;;;5129980;28;20043;-87
2022/08/04 11:08:05;;;;;;;0.60;0.50;;;29.80;99.90;;;;;;5164529;28;20130;-86
2022/08/04 11:10:38;;;;;;;0.47;0.47;;;29.70;99.90;;;;;;5147405;28;20043;-87
2022/08/04 11:13:10;;;;;;;0.40;0.40;;;29.90;99.90;;;;;;5147140;28;20071;-87
2022/08/04 11:15:43;;;;;;;0.40;0.40;;;29.90;99.90;;;;;;5130092;28;20035;-88
2022/08/04 11:18:38;;;;;;;1.50;0.43;;;29.90;99.90;;;;;;5130290;28;20043;-87
2022/08/04 11:21:20;;;;;;;0.73;0.40;;;29.80;99.90;;;;;;5129593;28;20138;-87
2022/08/04 11:24:03;;;;;;;2.58;1.05;;;29.70;99.90;;;;;;5130286;28;20403;-87
2022/08/04 11:26:39;;;;;;;0.93;0.50;;;29.60;99.90;;;;;;5129631;28;20036;-87
2022/08/04 11:29:21;;;;;;;0.40;0.25;;;29.60;99.90;;;;;;5130062;28;20084;-87
2022/08/04 11:31:49;;;;;;;0.40;0.32;;;29.60;99.90;;;;;;5130280;28;20123;-86
2022/08/04 11:34:18;;;;;;;0.70;0.52;;;29.40;99.90;;;;;;5163802;28;20408;-87
2022/08/04 11:37:10;;;;;;;0.32;0.30;;;29.40;99.90;;;;;;5165282;27;20043;-87
2022/08/04 11:39:43;;;;;;;0.60;0.50;;;29.40;99.90;;;;;;5133553;28;20039;-87
2022/08/04 11:42:25;;;;;;;0.40;0.40;;;29.40;99.90;;;;;;5134251;28;20119;-86
2022/08/04 11:45:17;;;;;;;0.20;0.20;;;29.40;99.90;;;;;;5133785;28;20066;-87
2022/08/04 11:48:10;;;;;;;0.50;0.35;;;29.20;99.90;;;;;;5143014;28;20043;-87
2022/08/04 11:50:47;;;;;;;0.45;0.40;;;29.10;99.90;;;;;;5150741;28;20052;-86
2022/08/04 11:53:18;;;;;;;0.55;0.38;;;29.10;99.90;;;;;;5133621;28;20174;-88
2022/08/04 11:55:48;;;;;;;0.35;0.32;;;29.00;99.90;;;;;;5133614;28;20035;-87
2022/08/04 11:58:15;;;;;;;0.20;0.20;;;29.00;99.90;;;;;;5150699;28;20043;-86
2022/08/04 12:01:11;;;;;;;0.40;0.40;;;29.00;99.90;;;;;;5133327;28;20122;-87
2022/08/04 12:04:17;;;;;;;0.80;0.50;;;29.00;99.90;;;;;;5122067;28;20050;-87
2022/08/04 12:07:06;;;;;;;0.73;0.40;;;28.90;99.90;;;;;;5133032;28;20134;-87
2022/08/04 12:10:01;;;;;;;0.60;0.40;;;28.90;99.90;;;;;;5133465;28;20040;-87
2022/08/04 12:12:40;;;;;;;1.15;0.35;;;28.70;99.90;;;;;;5133193;28;20040;-86
2022/08/04 12:15:15;;;;;;;0.30;0.20;;;28.70;99.90;;;;;;5133403;28;20079;-87
2022/08/04 12:17:52;;;;;;;0.20;0.20;;;28.50;99.90;;;;;;5166873;27;20555;-87
2022/08/04 12:20:22;;;;;;;0.20;0.20;;;28.50;99.90;;;;;;5133572;28;20044;-86
2022/08/04 12:22:51;;;;;;;0.20;0.20;;;28.30;99.90;;;;;;5132437;28;20043;-87
2022/08/04 12:25:33;;;;;;;0.25;0.25;;;28.30;99.90;;;;;;5150206;28;20039;-87
2022/08/04 12:28:06;;;;;;;0.20;0.20;;;28.20;99.90;;;;;;5133192;28;20065;-87
2022/08/04 12:30:37;;;;;;;0.70;0.40;;;28.20;99.90;;;;;;5150307;28;20450;-87
2022/08/04 12:33:19;;;;;;;0.57;0.40;;;28.00;99.90;;;;;;5150121;28;20043;-86
2022/08/04 12:35:57;;;;;;;0.32;0.32;;;27.90;99.90;;;;;;5132825;28;20039;-87
2022/08/04 12:38:27;;;;;;;0.38;0.28;;;27.90;99.90;;;;;;5150169;28;20039;-87
2022/08/04 12:40:57;;;;;;;0.10;0.10;;;27.80;99.90;;;;;;5133067;28;20081;-87
2022/08/04 12:43:28;;;;;;;0.20;0.20;;;27.70;99.90;;;;;;5133270;28;20055;-87
2022/08/04 12:46:00;;;;;;;0.40;0.32;;;27.70;99.90;;;;;;5132544;28;20043;-87
2022/08/04 12:48:29;;;;;;;0.20;0.20;;;27.60;99.90;;;;;;5131036;28;20534;-87
2022/08/04 12:50:57;;;;;;;0.65;0.30;;;27.50;99.90;;;;;;5149568;28;20039;-87
2022/08/04 12:53:33;;;;;;;0.40;0.30;;;27.50;99.90;;;;;;5149414;28;20131;-86
2022/08/04 12:56:01;;;;;;;0.20;0.17;;;27.40;99.90;;;;;;5132538;28;20036;-87
2022/08/04 12:58:32;;;;;;;0.20;0.20;;;27.20;99.90;;;;;;5149554;28;20118;-87
2022/08/04 13:01:06;;;;;;;1.20;0.40;;;27.10;99.90;;;;;;5132339;28;20040;-87
2022/08/04 13:03:44;;;;;;;0.43;0.40;;;26.90;99.90;;;;;;5132426;28;20151;-87
2022/08/04 13:06:14;;;;;;;1.10;0.40;;;26.80;99.90;;;;;;5132428;28;20043;-86
2022/08/04 13:08:44;;;;;;;0.32;0.20;;;26.60;99.90;;;;;;5149686;28;20032;-86
2022/08/04 13:11:11;;;;;;;0.20;0.20;;;26.40;99.90;;;;;;5132188;28;20051;-86
2022/08/04 13:13:39;;;;;;;0.10;0.10;;;26.40;99.90;;;;;;5165893;27;20040;-86
2022/08/04 13:16:09;;;;;;;0.17;0.17;;;26.30;99.90;;;;;;5149353;28;20043;-86
2022/08/04 13:18:45;;;;;;;0.10;0.10;;;26.20;99.90;;;;;;5148789;28;20032;-86
2022/08/04 13:21:16;;;;;;;0.30;0.25;;;26.10;99.90;;;;;;5131799;28;20687;-86
2022/08/04 13:23:45;;;;;;;0.30;0.30;;;25.90;99.90;;;;;;5165936;27;20086;-86
2022/08/04 13:26:13;;;;;;;0.22;0.20;;;25.60;99.90;;;;;;5148758;28;20055;-86
2022/08/04 13:28:45;;;;;;;0.22;0.22;;;25.60;99.90;;;;;;5131865;28;20052;-87
2022/08/04 13:31:25;;;;;;;0.20;0.20;;;25.40;99.90;;;;;;5132028;28;20051;-87
2022/08/04 13:34:01;;;;;;;0.20;0.20;;;25.40;99.90;;;;;;5131778;28;20157;-86
2022/08/04 13:36:28;;;;;;;0.20;0.20;;;25.40;99.90;;;;;;5132106;28;20036;-87
2022/08/04 13:39:01;;;;;;;0.28;0.28;;;25.50;99.90;;;;;;5148394;28;20039;-86
2022/08/04 13:41:29;;;;;;;0.15;0.15;;;25.70;99.90;;;;;;5131581;28;20027;-87
2022/08/04 13:44:02;;;;;;;0.25;0.20;;;26.00;99.90;;;;;;5165298;27;20047;-86
2022/08/04 13:46:32;;;;;;;0.20;0.20;;;26.20;99.90;;;;;;5131638;28;20447;-87
2022/08/04 13:49:06;;;;;;;0.20;0.20;;;26.40;99.90;;;;;;5165949;27;20079;-86